createdAt,value
2023-01-17T00:00:44.524Z,100270.80
2023-01-17T00:03:17.340Z,100271.63
2023-01-17T00:06:07.743Z,100282.11
2023-01-17T00:08:58.529Z,100285.66
2023-01-17T00:11:31.766Z,100288.70
2023-01-17T00:14:04.611Z,100286.06
2023-01-17T00:16:37.458Z,100283.70
2023-01-17T00:19:28.302Z,100282.11
2023-01-17T00:22:19.284Z,100285.15
2023-01-17T00:25:09.912Z,100285.59
2023-01-17T00:27:41.969Z,100283.84
2023-01-17T00:30:14.223Z,100266.84
2023-01-17T00:32:46.750Z,100263.08
2023-01-17T00:35:19.599Z,100254.69
2023-01-17T00:38:06.057Z,100253.09
2023-01-17T00:40:40.682Z,100254.45
2023-01-17T00:43:33.341Z,100246.06
2023-01-17T00:46:24.190Z,100249.41
2023-01-17T00:49:15.040Z,100239.96
2023-01-17T00:52:06.087Z,100240.70
2023-01-17T00:54:57.232Z,100237.83
2023-01-17T00:57:48.274Z,100232.55
2023-01-17T01:00:39.520Z,100240.09
2023-01-17T01:03:31.661Z,100237.37
2023-01-17T01:06:24.936Z,100232.31
2023-01-17T01:09:15.709Z,100239.86
2023-01-17T01:12:07.232Z,100236.63
2023-01-17T01:14:57.803Z,100229.91
2023-01-17T01:17:48.860Z,100222.06
2023-01-17T01:20:39.541Z,100221.75
2023-01-17T01:23:30.527Z,100217.36
2023-01-17T01:26:23.456Z,100218.88
2023-01-17T01:29:14.528Z,100225.33
2023-01-17T01:32:05.068Z,100215.69
2023-01-17T01:34:37.711Z,100217.17
2023-01-17T01:37:11.112Z,100219.97
2023-01-17T01:39:44.183Z,100218.18
2023-01-17T01:42:18.618Z,100216.35
2023-01-17T01:44:54.469Z,100209.05
2023-01-17T01:47:32.522Z,100208.12
2023-01-17T01:50:09.007Z,100211.81
2023-01-17T01:52:46.085Z,100200.11
2023-01-17T01:55:25.686Z,100198.52
2023-01-17T01:58:03.292Z,100201.47
2023-01-17T02:00:41.201Z,100193.47
2023-01-17T02:03:18.593Z,100197.08
2023-01-17T02:05:51.629Z,100197.78
2023-01-17T02:08:25.808Z,100196.50
2023-01-17T02:10:58.987Z,100192.42
2023-01-17T02:13:31.751Z,100189.27
2023-01-17T02:16:12.570Z,100186.31
2023-01-17T02:19:12.408Z,100187.59
2023-01-17T02:21:59.382Z,100185.96
2023-01-17T02:24:48.730Z,100193.81
2023-01-17T02:27:55.974Z,100189.96
2023-01-17T02:30:37.387Z,100194.32
2023-01-17T02:33:17.639Z,100193.11
2023-01-17T02:36:11.935Z,100192.22
2023-01-17T02:38:49.667Z,100190.94
2023-01-17T02:41:32.636Z,100189.11
2023-01-17T02:44:06.426Z,100185.84
2023-01-17T02:46:54.891Z,100185.50
2023-01-17T02:49:30.771Z,100188.11
2023-01-17T02:52:38.865Z,100179.05
2023-01-17T02:55:19.377Z,100181.07
2023-01-17T02:58:13.604Z,100185.84
2023-01-17T03:01:10.441Z,100182.00
2023-01-17T03:03:56.818Z,100181.46
2023-01-17T03:06:43.450Z,100179.28
2023-01-17T03:09:18.001Z,100180.17
2023-01-17T03:11:50.899Z,100184.02
2023-01-17T03:14:24.441Z,100184.41
2023-01-17T03:16:58.155Z,100186.36
2023-01-17T03:19:31.803Z,100190.67
2023-01-17T03:22:04.629Z,100193.19
2023-01-17T03:24:37.472Z,100187.29
2023-01-17T03:27:10.648Z,100197.27
2023-01-17T03:29:43.716Z,100199.76
2023-01-17T03:32:16.636Z,100191.83
2023-01-17T03:34:51.062Z,100193.27
2023-01-17T03:37:24.183Z,100193.42
2023-01-17T03:39:58.018Z,100195.16
2023-01-17T03:42:31.778Z,100196.60
2023-01-17T03:45:04.916Z,100195.63
2023-01-17T03:47:38.069Z,100201.45
2023-01-17T03:50:13.653Z,100200.09
2023-01-17T03:52:47.108Z,100212.33
2023-01-17T03:55:20.021Z,100211.70
2023-01-17T03:57:53.251Z,100205.45
2023-01-17T04:00:26.268Z,100204.31
2023-01-17T04:02:59.183Z,100201.31
2023-01-17T04:05:32.270Z,100197.77
2023-01-17T04:08:06.904Z,100196.40
2023-01-17T04:10:40.120Z,100193.24
2023-01-17T04:13:13.990Z,100180.91
2023-01-17T04:15:49.265Z,100188.85
2023-01-17T04:18:24.598Z,100182.83
2023-01-17T04:20:57.801Z,100184.85
2023-01-17T04:23:30.761Z,100185.63
2023-01-17T04:26:03.958Z,100182.67
2023-01-17T04:28:37.115Z,100173.45
2023-01-17T04:31:12.798Z,100176.91
2023-01-17T04:33:46.506Z,100176.32
2023-01-17T04:36:19.607Z,100182.50
2023-01-17T04:38:52.419Z,100180.23
2023-01-17T04:41:26.347Z,100179.49
2023-01-17T04:43:59.275Z,100183.50
2023-01-17T04:46:32.503Z,100184.93
2023-01-17T04:49:05.424Z,100184.09
2023-01-17T04:51:38.708Z,100186.59
2023-01-17T04:54:11.572Z,100186.05
2023-01-17T04:56:45.148Z,100197.98
2023-01-17T04:59:18.131Z,100199.51
2023-01-17T05:01:51.441Z,100193.17
2023-01-17T05:04:24.280Z,100197.47
2023-01-17T05:06:57.262Z,100198.16
2023-01-17T05:09:30.043Z,100195.44
2023-01-17T05:12:04.559Z,100204.47
2023-01-17T05:14:37.700Z,100203.19
2023-01-17T05:17:11.574Z,100206.68
2023-01-17T05:19:44.809Z,100217.09
2023-01-17T05:22:18.367Z,100212.12
2023-01-17T05:24:51.881Z,100221.10
2023-01-17T05:27:24.703Z,100222.54
2023-01-17T05:29:58.152Z,100211.89
2023-01-17T05:32:31.195Z,100206.75
2023-01-17T05:35:04.410Z,100212.42
2023-01-17T05:37:37.882Z,100211.34
2023-01-17T05:40:12.980Z,100201.47
2023-01-17T05:42:54.593Z,100199.59
2023-01-17T05:45:30.039Z,100198.66
2023-01-17T05:48:03.716Z,100207.88
2023-01-17T05:50:39.110Z,100195.80
2023-01-17T05:53:17.449Z,100207.34
2023-01-17T05:55:50.249Z,100204.77
2023-01-17T05:58:24.332Z,100215.28
2023-01-17T06:00:56.906Z,100217.61
2023-01-17T06:03:29.703Z,100215.89
2023-01-17T06:06:03.019Z,100212.49
2023-01-17T06:08:36.309Z,100213.30
2023-01-17T06:11:09.317Z,100217.61
2023-01-17T06:13:42.218Z,100217.02
2023-01-17T06:16:15.222Z,100214.75
2023-01-17T06:18:48.492Z,100216.05
2023-01-17T06:21:21.681Z,100218.13
2023-01-17T06:23:56.945Z,100218.44
2023-01-17T06:26:29.798Z,100221.31
2023-01-17T06:29:03.697Z,100216.71
2023-01-17T06:31:37.150Z,100227.58
2023-01-17T06:34:10.096Z,100230.14
2023-01-17T06:36:43.259Z,100226.23
2023-01-17T06:39:16.300Z,100226.00
2023-01-17T06:41:49.254Z,100226.30
2023-01-17T06:44:22.409Z,100229.41
2023-01-17T06:46:55.840Z,100232.64
2023-01-17T06:49:28.678Z,100232.58
2023-01-17T06:52:01.647Z,100233.92
2023-01-17T06:54:35.347Z,100229.39
2023-01-17T06:57:08.429Z,100221.74
2023-01-17T06:59:41.256Z,100228.61
2023-01-17T07:02:14.833Z,100227.78
2023-01-17T07:04:47.715Z,100232.28
2023-01-17T07:07:21.427Z,100228.38
2023-01-17T07:09:54.338Z,100218.09
2023-01-17T07:12:27.580Z,100219.87
2023-01-17T07:15:02.275Z,100216.56
2023-01-17T07:17:36.845Z,100210.83
2023-01-17T07:20:10.055Z,100222.30
2023-01-17T07:22:46.824Z,100220.77
2023-01-17T07:25:20.487Z,100221.81
2023-01-17T07:27:58.008Z,100223.54
2023-01-17T07:30:31.008Z,100219.08
2023-01-17T07:33:04.208Z,100220.13
2023-01-17T07:35:37.919Z,100208.34
2023-01-17T07:38:20.174Z,100208.70
2023-01-17T07:40:53.204Z,100210.67
2023-01-17T07:43:26.140Z,100206.36
2023-01-17T07:46:01.265Z,100201.88
2023-01-17T07:48:33.995Z,100205.88
2023-01-17T07:51:07.415Z,100220.55
2023-01-17T07:53:40.473Z,100229.91
2023-01-17T07:56:14.444Z,100209.58
2023-01-17T07:58:48.867Z,100213.59
2023-01-17T08:01:21.796Z,100212.59
2023-01-17T08:03:55.487Z,100212.42
2023-01-17T08:06:29.610Z,100207.62
2023-01-17T08:09:03.258Z,100200.70
2023-01-17T08:11:36.524Z,100200.23
2023-01-17T08:14:10.133Z,100202.98
2023-01-17T08:16:43.780Z,100200.74
2023-01-17T08:19:17.617Z,100197.09
2023-01-17T08:21:51.270Z,100182.23
2023-01-17T08:24:24.914Z,100187.80
2023-01-17T08:26:58.016Z,100184.19
2023-01-17T08:29:31.206Z,100184.33
2023-01-17T08:32:04.828Z,100186.69
2023-01-17T08:34:38.328Z,100182.72
2023-01-17T08:37:11.023Z,100176.37
2023-01-17T08:39:44.147Z,100175.53
2023-01-17T08:42:17.094Z,100186.76
2023-01-17T08:44:51.518Z,100178.67
2023-01-17T08:47:25.248Z,100182.81
2023-01-17T08:50:00.148Z,100169.82
2023-01-17T08:52:33.682Z,100177.97
2023-01-17T08:55:09.276Z,100179.80
2023-01-17T08:57:42.348Z,100185.87
2023-01-17T09:00:15.673Z,100176.52
2023-01-17T09:02:48.533Z,100181.80
2023-01-17T09:05:21.516Z,100173.94
2023-01-17T09:07:56.854Z,100172.91
2023-01-17T09:10:29.935Z,100154.75
2023-01-17T09:13:02.748Z,100147.98
2023-01-17T09:15:35.738Z,100140.01
2023-01-17T09:18:09.347Z,100129.58
2023-01-17T09:20:42.473Z,100133.22
2023-01-17T09:23:15.360Z,100132.20
2023-01-17T09:26:00.448Z,100124.47
2023-01-17T09:28:35.084Z,100126.30
2023-01-17T09:31:10.118Z,100124.25
2023-01-17T09:33:43.407Z,100137.15
2023-01-17T09:36:16.817Z,100139.20
2023-01-17T09:38:50.713Z,100137.02
2023-01-17T09:41:51.961Z,100128.61
2023-01-17T09:44:41.474Z,100116.39
2023-01-17T09:47:34.061Z,100114.97
2023-01-17T09:50:27.097Z,100113.28
2023-01-17T09:53:22.212Z,100109.19
2023-01-17T09:56:07.821Z,100100.83
2023-01-17T09:58:54.906Z,100100.30
2023-01-17T10:01:36.835Z,100086.12
2023-01-17T10:04:23.102Z,100088.46
2023-01-17T10:07:29.620Z,100085.35
2023-01-17T10:10:36.775Z,100082.67
2023-01-17T10:13:43.459Z,100077.37
2023-01-17T10:16:42.377Z,100078.53
2023-01-17T10:19:40.959Z,100075.55
2023-01-17T10:22:36.707Z,100071.94
2023-01-17T10:25:34.999Z,100068.86
2023-01-17T10:28:26.490Z,100074.94
2023-01-17T10:31:15.724Z,100076.09
2023-01-17T10:33:52.974Z,100075.68
2023-01-17T10:36:29.198Z,100074.54
2023-01-17T10:39:24.112Z,100074.40
2023-01-17T10:42:10.270Z,100078.80
2023-01-17T10:44:50.981Z,100077.23
2023-01-17T10:47:27.718Z,100071.93
2023-01-17T10:50:02.083Z,100063.00
2023-01-17T10:52:59.317Z,100059.39
2023-01-17T10:55:53.580Z,100057.98
2023-01-17T10:58:27.875Z,100057.31
2023-01-17T11:01:19.458Z,100056.28
2023-01-17T11:03:55.575Z,100057.20
2023-01-17T11:06:31.140Z,100042.60
2023-01-17T11:09:05.506Z,100044.42
2023-01-17T11:11:46.377Z,100025.81
2023-01-17T11:14:24.272Z,100017.30
2023-01-17T11:17:06.013Z,100019.22
2023-01-17T11:19:39.783Z,100015.73
2023-01-17T11:22:14.642Z,100010.45
2023-01-17T11:24:56.389Z,100017.80
2023-01-17T11:27:35.817Z,100013.16
2023-01-17T11:30:22.187Z,100023.89
2023-01-17T11:33:09.009Z,100024.00
2023-01-17T11:35:46.491Z,100025.84
2023-01-17T11:38:24.242Z,100031.52
2023-01-17T11:40:58.858Z,100030.61
2023-01-17T11:43:32.987Z,100031.91
2023-01-17T11:46:19.514Z,100037.59
2023-01-17T11:48:56.437Z,100036.17
2023-01-17T11:51:43.502Z,100034.48
2023-01-17T11:54:38.059Z,100034.88
2023-01-17T11:57:25.422Z,100029.06
2023-01-17T12:00:08.746Z,100027.69
2023-01-17T12:02:59.695Z,100029.86
2023-01-17T12:05:53.893Z,100028.45
2023-01-17T12:08:55.969Z,100028.97
2023-01-17T12:11:36.584Z,100037.08
2023-01-17T12:14:35.079Z,100032.95
2023-01-17T12:17:30.350Z,100031.30
2023-01-17T12:20:12.402Z,100029.61
2023-01-17T12:22:58.587Z,100031.55
2023-01-17T12:25:55.594Z,100032.45
2023-01-17T12:28:45.002Z,100033.73
2023-01-17T12:31:46.581Z,100035.92
2023-01-17T12:34:42.972Z,100035.43
2023-01-17T12:37:29.884Z,100034.01
2023-01-17T12:40:24.935Z,100030.14
2023-01-17T12:43:24.796Z,100023.16
2023-01-17T12:45:58.548Z,100024.58
2023-01-17T12:48:36.205Z,100027.69
2023-01-17T12:51:40.404Z,100020.70
2023-01-17T12:54:39.576Z,100024.17
2023-01-17T12:57:24.242Z,100023.02
2023-01-17T13:00:04.471Z,100024.30
2023-01-17T13:02:48.342Z,100031.28
2023-01-17T13:05:46.722Z,100039.02
2023-01-17T13:08:44.066Z,100039.66
2023-01-17T13:11:28.948Z,100028.72
2023-01-17T13:14:03.158Z,100034.12
2023-01-17T13:16:42.259Z,100036.45
2023-01-17T13:19:40.841Z,100041.75
2023-01-17T13:22:17.435Z,100043.42
2023-01-17T13:25:04.425Z,100043.98
2023-01-17T13:27:51.079Z,100054.27
2023-01-17T13:30:49.356Z,100044.98
2023-01-17T13:34:01.649Z,100053.52
2023-01-17T13:36:58.773Z,100048.86
2023-01-17T13:39:36.411Z,100062.16
2023-01-17T13:42:33.591Z,100068.85
2023-01-17T13:45:12.843Z,100067.30
2023-01-17T13:47:45.845Z,100063.70
2023-01-17T13:50:44.037Z,100066.64
2023-01-17T13:53:39.221Z,100057.61
2023-01-17T13:56:32.855Z,100047.70
2023-01-17T13:59:09.518Z,100044.09
2023-01-17T14:01:53.284Z,100042.67
2023-01-17T14:04:27.060Z,100051.70
2023-01-17T14:07:01.651Z,100054.77
2023-01-17T14:09:43.677Z,100046.02
2023-01-17T14:12:26.170Z,100047.17
2023-01-17T14:15:01.490Z,100045.39
2023-01-17T14:17:59.420Z,100044.86
2023-01-17T14:20:45.401Z,100040.47
2023-01-17T14:23:40.684Z,100036.59
2023-01-17T14:26:28.434Z,100034.69
2023-01-17T14:29:22.875Z,100041.36
2023-01-17T14:32:02.775Z,100044.44
2023-01-17T14:34:36.426Z,100045.23
2023-01-17T14:37:40.964Z,100049.23
2023-01-17T14:40:25.460Z,100050.25
2023-01-17T14:43:03.458Z,100052.83
2023-01-17T14:45:37.439Z,100060.56
2023-01-17T14:48:17.952Z,100067.02
2023-01-17T14:50:54.639Z,100073.85
2023-01-17T14:53:32.766Z,100083.90
2023-01-17T14:56:19.130Z,100074.61
2023-01-17T14:59:16.141Z,100072.17
2023-01-17T15:02:07.668Z,100068.30
2023-01-17T15:04:35.691Z,100083.90
2023-01-17T15:07:08.822Z,100075.14
2023-01-17T15:09:43.475Z,100069.09
2023-01-17T15:12:16.748Z,100063.94
2023-01-17T15:14:50.104Z,100065.86
2023-01-17T15:17:27.894Z,100072.56
2023-01-17T15:20:06.020Z,100074.11
2023-01-17T15:22:38.926Z,100074.11
2023-01-17T15:25:16.214Z,100067.91
2023-01-17T15:27:49.275Z,100071.91
2023-01-17T15:30:24.150Z,100060.30
2023-01-17T15:32:57.220Z,100065.86
2023-01-17T15:35:30.100Z,100067.27
2023-01-17T15:38:03.801Z,100061.09
2023-01-17T15:40:43.139Z,100058.38
2023-01-17T15:43:20.501Z,100059.14
2023-01-17T15:45:58.329Z,100055.28
2023-01-17T15:48:41.635Z,100051.80
2023-01-17T15:51:16.573Z,100050.75
2023-01-17T15:53:49.513Z,100050.48
2023-01-17T15:56:27.488Z,100053.45
2023-01-17T15:59:30.654Z,100055.01
2023-01-17T16:02:03.605Z,100050.08
2023-01-17T16:04:38.448Z,100055.10
2023-01-17T16:07:17.492Z,100048.92
2023-01-17T16:09:51.058Z,100041.45
2023-01-17T16:12:24.450Z,100036.03
2023-01-17T16:15:11.145Z,100037.72
2023-01-17T16:17:32.882Z,100046.61
2023-01-17T16:20:09.975Z,100049.28
2023-01-17T16:22:44.154Z,100044.65
2023-01-17T16:25:19.279Z,100040.25
2023-01-17T16:27:52.474Z,100040.37
2023-01-17T16:30:26.060Z,100047.19
2023-01-17T16:33:00.175Z,100043.85
2023-01-17T16:35:35.220Z,100046.82
2023-01-17T16:38:11.919Z,100046.42
2023-01-17T16:40:46.673Z,100045.00
2023-01-17T16:43:21.664Z,100044.11
2023-01-17T16:45:56.072Z,100043.72
2023-01-17T16:48:27.998Z,100045.40
2023-01-17T16:51:01.428Z,100044.88
2023-01-17T16:53:34.663Z,100049.27
2023-01-17T16:56:14.954Z,100044.11
2023-01-17T16:58:48.240Z,100045.00
2023-01-17T17:01:23.040Z,100046.69
2023-01-17T17:03:56.985Z,100058.91
2023-01-17T17:06:31.576Z,100055.97
2023-01-17T17:09:04.355Z,100050.29
2023-01-17T17:11:38.086Z,100051.45
2023-01-17T17:14:11.214Z,100051.84
2023-01-17T17:16:44.779Z,100043.19
2023-01-17T17:19:19.747Z,100046.16
2023-01-17T17:21:52.334Z,100039.32
2023-01-17T17:24:25.405Z,100036.87
2023-01-17T17:26:58.859Z,100037.41
2023-01-17T17:29:31.639Z,100036.52
2023-01-17T17:32:04.645Z,100042.56
2023-01-17T17:34:39.491Z,100039.36
2023-01-17T17:37:12.670Z,100051.59
2023-01-17T17:39:47.419Z,100042.34
2023-01-17T17:42:20.983Z,100047.98
2023-01-17T17:44:53.911Z,100041.81
2023-01-17T17:47:27.522Z,100050.34
2023-01-17T17:50:00.574Z,100048.26
2023-01-17T17:52:34.000Z,100040.03
2023-01-17T17:55:08.498Z,100037.95
2023-01-17T17:57:42.089Z,100040.03
2023-01-17T18:00:15.872Z,100040.52
2023-01-17T18:02:49.057Z,100036.66
2023-01-17T18:05:22.088Z,100029.33
2023-01-17T18:07:56.057Z,100036.17
2023-01-17T18:10:30.027Z,100036.17
2023-01-17T18:13:03.646Z,100031.77
2023-01-17T18:15:36.654Z,100032.30
2023-01-17T18:18:09.675Z,100028.94
2023-01-17T18:20:42.648Z,100029.73
2023-01-17T18:23:16.128Z,100014.39
2023-01-17T18:25:49.412Z,100021.73
2023-01-17T18:28:22.396Z,100036.17
2023-01-17T18:30:55.572Z,100029.50
2023-01-17T18:33:28.493Z,100035.05
2023-01-17T18:36:03.281Z,100040.08
2023-01-17T18:38:42.807Z,100044.83
2023-01-17T18:41:22.825Z,100042.02
2023-01-17T18:43:57.297Z,100046.28
2023-01-17T18:46:31.945Z,100039.84
2023-01-17T18:49:05.666Z,100045.49
2023-01-17T18:51:38.683Z,100042.55
2023-01-17T18:54:11.455Z,100044.73
2023-01-17T18:56:44.326Z,100048.33
2023-01-17T18:59:21.855Z,100046.02
2023-01-17T19:01:55.362Z,100053.36
2023-01-17T19:04:28.984Z,100042.15
2023-01-17T19:07:01.916Z,100042.41
2023-01-17T19:09:35.414Z,100040.73
2023-01-17T19:12:08.504Z,100043.31
2023-01-17T19:14:41.978Z,100046.55
2023-01-17T19:17:14.742Z,100034.95
2023-01-17T19:19:47.856Z,100043.31
2023-01-17T19:22:21.923Z,100036.60
2023-01-17T19:24:55.149Z,100039.05
2023-01-17T19:27:28.027Z,100034.65
2023-01-17T19:30:00.964Z,100043.18
2023-01-17T19:32:34.144Z,100043.94
2023-01-17T19:35:09.466Z,100035.55
2023-01-17T19:37:48.396Z,100040.57
2023-01-17T19:40:22.215Z,100051.02
2023-01-17T19:42:56.320Z,100062.88
2023-01-17T19:45:29.479Z,100055.67
2023-01-17T19:48:02.360Z,100049.36
2023-01-17T19:50:35.897Z,100052.30
2023-01-17T19:53:09.447Z,100060.17
2023-01-17T19:55:42.443Z,100059.14
2023-01-17T19:58:15.575Z,100049.23
2023-01-17T20:00:48.822Z,100055.28
2023-01-17T20:03:22.813Z,100040.84
2023-01-17T20:05:58.169Z,100038.39
2023-01-17T20:08:29.939Z,100034.39
2023-01-17T20:11:16.390Z,100027.81
2023-01-17T20:13:53.473Z,100030.52
2023-01-17T20:16:29.409Z,100023.31
2023-01-17T20:19:03.019Z,100027.95
2023-01-17T20:21:36.036Z,100042.91
2023-01-17T20:24:11.461Z,100049.72
2023-01-17T20:26:45.149Z,100063.54
2023-01-17T20:29:19.250Z,100062.25
2023-01-17T20:31:53.449Z,100064.03
2023-01-17T20:34:26.529Z,100078.34
2023-01-17T20:36:59.688Z,100087.11
2023-01-17T20:39:33.063Z,100095.90
2023-01-17T20:42:05.973Z,100096.92
2023-01-17T20:44:39.021Z,100086.34
2023-01-17T20:47:12.150Z,100100.92
2023-01-17T20:49:45.118Z,100097.19
2023-01-17T20:52:18.470Z,100089.23
2023-01-17T20:54:51.974Z,100092.06
2023-01-17T20:57:25.284Z,100101.98
2023-01-17T20:59:58.025Z,100093.09
2023-01-17T21:02:30.911Z,100087.01
2023-01-17T21:05:05.273Z,100085.22
2023-01-17T21:07:38.697Z,100097.59
2023-01-17T21:10:13.115Z,100103.01
2023-01-17T21:12:47.074Z,100101.19
2023-01-17T21:15:20.499Z,100107.14
2023-01-17T21:17:53.891Z,100115.64
2023-01-17T21:20:27.609Z,100119.77
2023-01-17T21:23:00.260Z,100123.50
2023-01-17T21:25:33.489Z,100117.16
2023-01-17T21:28:06.782Z,100122.17
2023-01-17T21:30:39.727Z,100113.67
2023-01-17T21:33:13.539Z,100110.17
2023-01-17T21:35:46.414Z,100111.98
2023-01-17T21:38:19.877Z,100102.44
2023-01-17T21:40:54.516Z,100095.63
2023-01-17T21:43:27.246Z,100102.97
2023-01-17T21:46:05.309Z,100102.56
2023-01-17T21:48:44.326Z,100102.97
2023-01-17T21:51:17.610Z,100105.14
2023-01-17T21:53:50.736Z,100106.97
2023-01-17T21:56:40.977Z,100112.65
2023-01-17T21:59:13.659Z,100111.36
2023-01-17T22:01:46.897Z,100111.23
2023-01-17T22:04:20.235Z,100106.21
2023-01-17T22:06:53.748Z,100106.08
2023-01-17T22:09:26.593Z,100107.23
2023-01-17T22:11:59.412Z,100110.44
2023-01-17T22:14:32.829Z,100111.72
2023-01-17T22:17:05.989Z,100108.39
2023-01-17T22:19:38.860Z,100097.28
2023-01-17T22:22:12.381Z,100106.30
2023-01-17T22:24:45.256Z,100101.94
2023-01-17T22:27:18.173Z,100102.44
2023-01-17T22:29:51.572Z,100104.65
2023-01-17T22:32:25.220Z,100115.19
2023-01-17T22:34:58.158Z,100115.58
2023-01-17T22:37:31.326Z,100119.05
2023-01-17T22:40:06.077Z,100128.87
2023-01-17T22:42:39.423Z,100131.67
2023-01-17T22:45:14.001Z,100135.05
2023-01-17T22:47:46.706Z,100143.40
2023-01-17T22:50:20.477Z,100137.58
2023-01-17T22:52:53.687Z,100134.11
2023-01-17T22:55:26.398Z,100128.42
2023-01-17T22:57:59.101Z,100120.06
2023-01-17T23:00:31.814Z,100127.52
2023-01-17T23:03:06.525Z,100132.93
2023-01-17T23:05:41.725Z,100132.14
2023-01-17T23:08:14.997Z,100135.25
2023-01-17T23:11:05.772Z,100127.26
2023-01-17T23:13:40.248Z,100136.67
2023-01-17T23:16:30.667Z,100133.07
2023-01-17T23:19:21.376Z,100142.45
2023-01-17T23:22:18.616Z,100160.62
2023-01-17T23:25:06.870Z,100170.44
2023-01-17T23:28:01.018Z,100167.46
2023-01-17T23:30:37.657Z,100166.56
2023-01-17T23:33:13.400Z,100154.05
2023-01-17T23:35:47.570Z,100163.59
2023-01-17T23:38:26.334Z,100165.28
2023-01-17T23:41:26.487Z,100163.59
2023-01-17T23:44:00.106Z,100169.91
2023-01-17T23:46:32.930Z,100178.03
2023-01-17T23:49:06.232Z,100174.78
2023-01-17T23:51:39.279Z,100176.33
2023-01-17T23:54:12.846Z,100186.86
2023-01-17T23:56:45.639Z,100176.55
2023-01-17T23:59:19.282Z,100176.05
